Time;durP1;ratioP1;P1;durP2;ratioP2;P2;SDS_P1;SDS_P2;PMS_P1;PMS_P2;Temp;Humidity;BMP_temperature;BMP_pressure;BME280_temperature;BME280_humidity;BME280_pressure;Samples;Min_cycle;Max_cycle;Signal;HPM_P1;HPM_P2
2023/09/21 00:06:43;;;;;;;1.45;1.08;;;;;;;20.90;83.65;99706.28;20880085;28;20033;-59
2023/09/21 00:16:45;;;;;;;1.67;1.10;;;;;;;20.89;83.62;99696.50;20880878;28;20488;-59
2023/09/21 00:26:50;;;;;;;1.20;1.00;;;;;;;20.90;83.22;99672.97;20880280;28;20120;-59
2023/09/21 00:36:52;;;;;;;1.20;1.10;;;;;;;20.89;83.19;99655.91;20880772;28;20398;-59
2023/09/21 00:46:54;;;;;;;2.88;1.10;;;;;;;20.88;83.32;99648.81;20877795;28;20079;-59
2023/09/21 00:56:56;;;;;;;1.20;1.10;;;;;;;20.87;83.38;99641.75;20862125;28;20044;-60
2023/09/21 01:06:58;;;;;;;1.75;1.20;;;;;;;20.88;83.31;99621.78;20879571;28;20054;-60
2023/09/21 01:17:00;;;;;;;1.13;0.90;;;;;;;20.87;83.22;99609.28;20796290;28;20099;-60
2023/09/21 01:27:02;;;;;;;1.17;0.93;;;;;;;20.86;83.15;99597.59;20796491;28;20053;-59
2023/09/21 01:37:05;;;;;;;2.05;1.10;;;;;;;20.85;83.06;99584.28;20802133;28;20045;-59
2023/09/21 01:47:09;;;;;;;2.03;1.10;;;;;;;20.84;82.93;99571.78;20810158;28;20084;-59
2023/09/21 01:57:11;;;;;;;2.55;1.58;;;;;;;20.82;82.57;99561.16;20810190;28;20045;-59
2023/09/21 02:07:14;;;;;;;1.35;1.10;;;;;;;20.79;81.64;99539.88;20791514;28;20049;-59
2023/09/21 02:17:17;;;;;;;1.40;1.20;;;;;;;20.77;81.69;99535.66;20790636;28;20579;-59
2023/09/21 02:27:18;;;;;;;1.83;1.20;;;;;;;20.76;81.52;99531.25;20790118;28;20049;-59
2023/09/21 02:37:20;;;;;;;1.65;1.23;;;;;;;20.75;81.50;99518.78;20807073;28;20119;-59
2023/09/21 02:47:23;;;;;;;1.48;1.25;;;;;;;20.75;81.33;99502.53;20788511;28;20095;-60
2023/09/21 02:57:28;;;;;;;1.77;1.17;;;;;;;20.72;81.15;99492.97;20787850;28;20041;-59
2023/09/21 03:07:30;;;;;;;;;;;;;;;20.72;81.02;99487.56;20846519;28;20065;-59
2023/09/21 03:17:31;;;;;;;2.33;1.25;;;;;;;20.69;80.95;99480.66;20884422;28;19986;-59
2023/09/21 03:27:34;;;;;;;2.22;1.40;;;;;;;20.70;80.80;99486.91;20868068;28;20063;-59
2023/09/21 03:37:40;;;;;;;1.52;1.05;;;;;;;20.70;80.69;99490.44;20866945;28;20055;-59
2023/09/21 03:47:42;;;;;;;1.90;1.30;;;;;;;20.70;80.58;99478.78;20865936;28;20120;-59
2023/09/21 03:57:46;;;;;;;1.50;1.10;;;;;;;20.69;80.38;99471.72;20863809;28;20488;-59
2023/09/21 04:07:49;;;;;;;1.95;1.35;;;;;;;20.60;80.15;99446.63;20865241;28;20056;-59
2023/09/21 04:17:52;;;;;;;1.80;1.30;;;;;;;20.66;80.17;99462.09;20881410;28;20045;-59
2023/09/21 04:27:54;;;;;;;3.38;1.35;;;;;;;20.70;80.80;99451.75;20863997;28;20056;-59
2023/09/21 04:37:58;;;;;;;1.35;1.00;;;;;;;20.70;80.93;99447.16;20855013;28;20050;-59
2023/09/21 04:48:03;;;;;;;1.40;1.20;;;;;;;20.71;81.14;99438.03;20798436;28;20454;-59
2023/09/21 04:58:08;;;;;;;1.85;1.23;;;;;;;20.71;80.96;99435.31;20780121;28;20486;-59
2023/09/21 05:08:10;;;;;;;1.42;1.20;;;;;;;20.71;80.78;99438.03;20780211;28;20141;-59
2023/09/21 05:18:12;;;;;;;1.48;1.10;;;;;;;20.71;80.67;99413.69;20820144;28;20053;-59
2023/09/21 05:28:16;;;;;;;1.60;1.27;;;;;;;20.70;80.44;99420.13;20892206;28;20171;-59
2023/09/21 05:38:18;;;;;;;1.47;1.00;;;;;;;20.70;80.51;99436.34;20839538;28;20451;-59
2023/09/21 05:48:19;;;;;;;1.50;1.00;;;;;;;20.71;80.38;99446.13;20815511;28;20456;-59
2023/09/21 05:58:21;;;;;;;1.27;1.05;;;;;;;20.71;80.42;99448.03;20809355;28;20056;-59
2023/09/21 06:08:23;;;;;;;1.45;1.00;;;;;;;20.70;80.25;99436.34;20810411;28;20053;-59
2023/09/21 06:18:25;;;;;;;1.05;0.90;;;;;;;20.74;80.26;99436.81;20821557;28;20048;-59
2023/09/21 06:28:28;;;;;;;2.38;1.00;;;;;;;20.77;80.02;99439.13;20887403;28;20053;-59
2023/09/21 06:38:30;;;;;;;1.63;1.00;;;;;;;20.78;79.90;99440.81;20888159;28;20053;-59
2023/09/21 06:48:32;;;;;;;1.67;1.20;;;;;;;20.79;80.26;99433.59;20829256;28;20123;-59
2023/09/21 06:58:35;;;;;;;4.80;1.70;;;;;;;20.81;80.20;99420.72;20825129;28;20463;-59
2023/09/21 07:08:37;;;;;;;2.35;1.08;;;;;;;20.84;80.55;99412.22;20810411;28;20127;-59
2023/09/21 07:18:39;;;;;;;1.52;1.30;;;;;;;21.03;80.10;99412.59;20851802;28;20053;-59
2023/09/21 07:28:41;;;;;;;2.25;1.23;;;;;;;21.03;79.85;99412.59;20822954;28;20146;-59
2023/09/21 07:38:43;;;;;;;1.70;1.17;;;;;;;20.94;80.01;99412.72;20835644;28;20053;-59
2023/09/21 07:48:48;;;;;;;2.55;1.17;;;;;;;20.96;79.79;99416.06;20802280;28;20083;-59
2023/09/21 07:58:50;;;;;;;2.55;1.38;;;;;;;21.82;76.92;99433.25;20800713;28;20105;-60
2023/09/21 08:08:52;;;;;;;2.42;1.40;;;;;;;21.38;78.53;99448.72;20800597;28;20049;-59
2023/09/21 08:18:54;;;;;;;2.13;1.40;;;;;;;21.22;79.35;99448.97;20869467;28;20103;-59
2023/09/21 08:28:58;;;;;;;1.50;1.08;;;;;;;21.11;80.04;99458.44;20828489;28;20056;-61
2023/09/21 08:39:02;;;;;;;2.13;1.30;;;;;;;20.98;81.11;99478.09;20808162;28;20048;-61
2023/09/21 08:49:06;;;;;;;1.63;1.23;;;;;;;20.91;82.18;99475.31;20815535;28;20047;-61
2023/09/21 08:59:08;;;;;;;1.97;1.20;;;;;;;20.85;83.25;99474.22;20795931;28;20072;-60
2023/09/21 09:09:10;;;;;;;3.75;1.30;;;;;;;20.83;84.44;99480.84;20825398;28;20041;-61
2023/09/21 09:19:13;;;;;;;1.40;1.13;;;;;;;20.82;85.24;99500.81;20821663;28;20081;-61
2023/09/21 09:29:16;;;;;;;2.42;1.10;;;;;;;20.80;85.69;99513.69;20823299;28;20041;-61
2023/09/21 09:39:19;;;;;;;2.30;1.35;;;;;;;20.79;86.67;99520.13;20809235;28;20049;-61
2023/09/21 09:49:26;;;;;;;1.50;1.20;;;;;;;20.78;88.37;99526.53;20852881;28;20067;-61
2023/09/21 09:59:28;;;;;;;1.60;1.50;;;;;;;20.70;89.12;99522.06;20809707;28;20052;-60
2023/09/21 10:09:31;;;;;;;2.38;1.40;;;;;;;20.72;89.90;99537.06;20845010;28;20471;-60
2023/09/21 10:19:38;;;;;;;2.10;1.38;;;;;;;20.62;90.37;99531.09;20823716;28;20045;-61
2023/09/21 10:29:42;;;;;;;1.70;1.30;;;;;;;20.68;90.96;99538.47;20819149;28;20512;-61
2023/09/21 10:39:44;;;;;;;2.47;1.38;;;;;;;20.67;91.27;99553.00;20818608;28;20137;-61
2023/09/21 10:49:46;;;;;;;1.48;1.10;;;;;;;20.67;91.62;99530.56;20795046;28;20044;-60
2023/09/21 10:59:49;;;;;;;1.33;1.10;;;;;;;20.67;91.55;99534.09;20795988;28;20436;-61
2023/09/21 11:10:11;;;;;;;1.42;1.13;;;;;;;20.66;91.72;99548.63;20802119;28;20123;-61
2023/09/21 11:20:17;;;;;;;1.35;0.98;;;;;;;20.67;91.84;99541.38;20825140;28;20219;-61
2023/09/21 11:30:22;;;;;;;2.35;1.05;;;;;;;20.65;92.03;99535.31;20831239;28;20049;-61
2023/09/21 11:40:26;;;;;;;1.25;1.10;;;;;;;20.65;92.19;99525.31;20846560;28;20077;-61
2023/09/21 11:50:31;;;;;;;1.35;0.80;;;;;;;20.69;92.18;99532.03;20806272;28;20041;-61
2023/09/21 12:01:12;;;;;;;3.33;1.00;;;;;;;20.73;92.07;99511.69;20836750;28;20128;-61
2023/09/21 12:11:13;;;;;;;0.93;0.77;;;;;;;20.78;92.36;99513.00;20829132;28;20061;-61
2023/09/21 12:21:18;;;;;;;2.08;1.20;;;;;;;20.77;92.23;99538.34;20834293;28;20041;-61
2023/09/21 12:31:22;;;;;;;0.90;0.70;;;;;;;20.74;92.04;99528.75;20821958;28;20485;-61
2023/09/21 12:41:24;;;;;;;1.70;0.87;;;;;;;20.73;91.59;99519.81;20818456;28;20140;-60
2023/09/21 12:51:27;;;;;;;0.90;0.70;;;;;;;20.73;91.36;99522.50;20813581;28;20057;-61
2023/09/21 13:01:29;;;;;;;0.95;0.65;;;;;;;20.73;90.86;99508.16;20819815;28;20060;-62
2023/09/21 13:11:31;;;;;;;1.50;0.80;;;;;;;20.75;91.59;99502.53;20825239;28;20429;-62
2023/09/21 13:21:33;;;;;;;1.00;0.60;;;;;;;20.82;92.52;99503.53;20786894;28;20053;-62
2023/09/21 13:31:36;;;;;;;10.18;1.25;;;;;;;20.84;91.40;99496.06;20836136;28;20045;-59
2023/09/21 13:41:38;;;;;;;3.03;0.80;;;;;;;20.88;89.74;99483.81;20798283;28;20550;-61
2023/09/21 13:51:41;;;;;;;1.27;0.45;;;;;;;20.90;88.19;99479.06;20809860;28;20060;-61
2023/09/21 14:01:43;;;;;;;0.70;0.50;;;;;;;20.93;87.67;99451.63;20809561;28;20056;-61
2023/09/21 14:11:45;;;;;;;4.30;0.70;;;;;;;20.91;88.76;99442.88;20812860;28;20056;-59
2023/09/21 14:21:47;;;;;;;1.13;0.70;;;;;;;20.93;88.84;99445.34;20814006;28;20075;-59
2023/09/21 14:31:49;;;;;;;1.73;0.70;;;;;;;20.77;88.96;99409.38;20807814;28;20068;-65
2023/09/21 14:41:51;;;;;;;2.13;0.60;;;;;;;20.61;89.85;99410.47;20811208;28;20163;-65
2023/09/21 14:51:53;;;;;;;1.10;0.55;;;;;;;20.55;90.28;99422.03;20797477;28;20198;-65
2023/09/21 15:01:55;;;;;;;1.95;0.60;;;;;;;20.50;90.83;99392.84;20824056;28;20128;-63
2023/09/21 15:11:57;;;;;;;2.00;0.60;;;;;;;20.69;91.35;99418.44;20794425;28;20497;-61
2023/09/21 15:21:59;;;;;;;0.55;0.30;;;;;;;20.85;90.53;99403.88;20830395;28;20060;-60
2023/09/21 15:32:01;;;;;;;1.27;0.50;;;;;;;20.94;92.51;99372.13;20824341;28;20068;-63
2023/09/21 15:42:03;;;;;;;1.30;0.50;;;;;;;20.97;95.49;99354.66;20835331;28;20115;-61
2023/09/21 15:52:04;;;;;;;1.20;0.70;;;;;;;20.98;95.17;99357.19;20824448;28;20119;-65
2023/09/21 16:02:06;;;;;;;1.35;1.08;;;;;;;21.06;95.13;99374.31;20825636;28;20111;-65
2023/09/21 16:12:08;;;;;;;6.38;2.10;;;;;;;21.13;96.88;99365.22;20835194;28;20103;-58
2023/09/21 16:22:10;;;;;;;11.93;3.75;;;;;;;21.21;97.63;99360.72;20825270;28;20156;-58
2023/09/21 16:32:12;;;;;;;5.47;2.38;;;;;;;21.24;97.22;99372.00;20821244;28;20678;-59
2023/09/21 16:42:15;;;;;;;6.68;2.45;;;;;;;21.27;97.44;99376.16;20804108;28;20057;-58
2023/09/21 16:52:17;;;;;;;5.97;1.80;;;;;;;21.23;97.34;99308.06;20813222;28;20565;-58
2023/09/21 17:02:18;;;;;;;4.22;1.75;;;;;;;21.21;97.62;99285.78;20828368;28;20053;-58
2023/09/21 17:12:20;;;;;;;6.38;2.33;;;;;;;21.13;97.77;99259.69;20813662;28;20127;-58
2023/09/21 17:22:23;;;;;;;4.57;2.10;;;;;;;21.17;97.60;99260.13;20808596;28;20061;-58
2023/09/21 17:32:28;;;;;;;5.72;1.60;;;;;;;21.14;97.92;99266.78;20831429;28;20571;-59
2023/09/21 17:42:31;;;;;;;4.22;1.70;;;;;;;21.12;97.89;99282.38;20833522;28;20049;-58
2023/09/21 17:52:35;;;;;;;3.93;1.67;;;;;;;21.10;97.04;99297.97;20837809;28;20494;-59
2023/09/21 18:02:37;;;;;;;3.23;1.23;;;;;;;21.05;96.08;99297.75;20807759;28;20151;-59
2023/09/21 18:12:40;;;;;;;3.13;1.20;;;;;;;21.00;95.45;99314.56;20824237;28;20044;-58
2023/09/21 18:22:42;;;;;;;2.78;1.38;;;;;;;20.97;94.73;99322.19;20840872;28;20048;-58
2023/09/21 18:32:45;;;;;;;4.55;1.30;;;;;;;20.93;94.32;99329.03;20809645;28;20452;-58
2023/09/21 18:42:47;;;;;;;2.85;0.90;;;;;;;20.89;93.96;99331.31;20815613;28;20046;-58
2023/09/21 18:52:50;;;;;;;3.88;0.93;;;;;;;20.86;93.21;99339.81;20814407;28;20135;-58
2023/09/21 19:02:52;;;;;;;2.38;0.80;;;;;;;20.84;92.64;99350.00;20828777;28;20129;-59
2023/09/21 19:12:54;;;;;;;1.73;0.90;;;;;;;20.80;92.36;99343.31;20803591;28;20072;-58
2023/09/21 19:22:56;;;;;;;1.08;0.70;;;;;;;20.78;91.82;99346.16;20855342;28;20508;-58
2023/09/21 19:32:58;;;;;;;2.25;0.73;;;;;;;20.78;91.54;99358.84;20837625;28;20476;-58
2023/09/21 19:43:00;;;;;;;2.13;0.77;;;;;;;20.74;91.21;99339.47;20832969;28;20053;-59
2023/09/21 19:53:03;;;;;;;3.55;0.73;;;;;;;20.71;90.89;99335.25;20833165;28;20049;-58
2023/09/21 20:03:06;;;;;;;1.50;0.70;;;;;;;20.70;90.69;99330.06;20835636;28;20049;-58
2023/09/21 20:13:08;;;;;;;1.42;0.60;;;;;;;20.70;91.11;99341.69;20850355;28;20073;-58
2023/09/21 20:23:10;;;;;;;2.58;0.90;;;;;;;20.71;93.83;99351.50;20853532;28;20052;-59
2023/09/21 20:33:12;;;;;;;1.80;0.75;;;;;;;20.72;94.65;99363.97;20833942;28;20057;-58
2023/09/21 20:43:14;;;;;;;2.75;0.77;;;;;;;20.71;94.70;99383.94;20836476;28;20973;-58
2023/09/21 20:53:16;;;;;;;2.13;0.80;;;;;;;20.70;94.31;99389.56;20835222;28;20049;-58
2023/09/21 21:03:18;;;;;;;0.85;0.60;;;;;;;20.68;93.91;99378.09;20832202;28;20504;-58
2023/09/21 21:13:20;;;;;;;1.85;0.68;;;;;;;20.67;93.57;99401.56;20832723;28;20060;-58
2023/09/21 21:23:22;;;;;;;1.95;0.98;;;;;;;20.65;93.07;99410.94;20837124;28;20037;-59
2023/09/21 21:33:23;;;;;;;1.55;0.60;;;;;;;20.64;92.80;99403.84;20823787;28;20049;-59
2023/09/21 21:43:25;;;;;;;1.30;0.70;;;;;;;20.61;92.32;99399.66;20836516;28;20450;-58
2023/09/21 21:53:29;;;;;;;0.82;0.50;;;;;;;20.59;91.65;99396.28;20831675;28;20786;-59
2023/09/21 22:03:30;;;;;;;0.57;0.40;;;;;;;20.59;91.26;99399.00;20844895;28;20056;-59
2023/09/21 22:13:36;;;;;;;1.30;0.70;;;;;;;20.56;90.83;99392.13;20872723;28;20522;-60
2023/09/21 22:23:39;;;;;;;1.15;0.63;;;;;;;20.56;90.53;99402.09;20875324;28;20045;-58
2023/09/21 22:33:40;;;;;;;0.82;0.50;;;;;;;20.54;90.17;99420.38;20848406;28;20048;-59
2023/09/21 22:43:43;;;;;;;0.43;0.43;;;;;;;20.54;89.95;99423.06;20843632;28;20049;-58
2023/09/21 22:53:45;;;;;;;1.23;0.75;;;;;;;20.52;89.65;99396.22;20847555;28;20131;-58
2023/09/21 23:03:47;;;;;;;1.83;0.70;;;;;;;20.52;89.39;99398.09;20843656;28;20049;-58
2023/09/21 23:13:54;;;;;;;0.82;0.70;;;;;;;20.51;89.00;99404.53;20840884;28;20408;-59
2023/09/21 23:23:57;;;;;;;1.13;0.80;;;;;;;20.50;89.13;99384.75;20842651;28;20056;-58
2023/09/21 23:33:58;;;;;;;1.20;1.00;;;;;;;20.50;88.98;99373.94;20853591;28;20053;-58
2023/09/21 23:44:00;;;;;;;1.13;0.93;;;;;;;20.50;89.02;99370.41;20842030;28;20052;-58
2023/09/21 23:54:02;;;;;;;2.65;1.10;;;;;;;20.48;89.00;99377.88;20841074;28;20084;-59
